createdAt,value
2023-01-07T00:01:07.021Z,12.35
2023-01-07T00:06:15.102Z,12.10
2023-01-07T00:11:24.362Z,13.98
2023-01-07T00:16:29.906Z,11.85
2023-01-07T00:21:32.736Z,9.07
2023-01-07T00:26:37.012Z,10.65
2023-01-07T00:31:41.167Z,12.07
2023-01-07T00:36:45.461Z,12.02
2023-01-07T00:42:11.503Z,12.25
2023-01-07T00:47:13.587Z,13.68
2023-01-07T00:52:15.623Z,12.45
2023-01-07T00:57:17.633Z,12.50
2023-01-07T01:02:19.801Z,10.90
2023-01-07T01:07:21.826Z,15.27
2023-01-07T01:12:23.990Z,13.52
2023-01-07T01:17:26.049Z,9.98
2023-01-07T01:22:28.032Z,13.80
2023-01-07T01:27:31.646Z,11.60
2023-01-07T01:32:33.706Z,12.18
2023-01-07T01:37:35.719Z,12.00
2023-01-07T01:42:37.821Z,8.43
2023-01-07T01:47:48.818Z,11.20
2023-01-07T01:53:16.531Z,11.70
2023-01-07T01:58:22.512Z,11.95
2023-01-07T02:03:26.496Z,13.20
2023-01-07T02:08:29.014Z,12.98
2023-01-07T02:19:07.240Z,12.07
2023-01-07T02:24:24.372Z,15.40
2023-01-07T02:29:54.747Z,13.00
2023-01-07T02:35:12.805Z,12.25
2023-01-07T02:40:24.646Z,9.88
2023-01-07T02:45:39.676Z,17.95
2023-01-07T02:50:41.686Z,16.02
2023-01-07T02:56:10.116Z,15.40
2023-01-07T03:01:30.552Z,13.48
2023-01-07T03:12:15.850Z,13.15
2023-01-07T03:17:26.007Z,16.95
2023-01-07T03:22:31.004Z,17.45
2023-01-07T03:27:36.835Z,18.27
2023-01-07T03:32:58.317Z,17.58
2023-01-07T03:38:02.155Z,18.17
2023-01-07T03:43:04.614Z,11.05
2023-01-07T03:48:06.965Z,15.95
2023-01-07T03:53:09.112Z,17.08
2023-01-07T03:58:11.208Z,18.63
2023-01-07T04:03:13.223Z,20.90
2023-01-07T04:08:15.244Z,17.80
2023-01-07T04:13:17.184Z,21.95
2023-01-07T04:18:19.136Z,23.27
2023-01-07T04:23:21.136Z,18.38
2023-01-07T04:28:23.171Z,23.27
2023-01-07T04:33:25.130Z,20.90
2023-01-07T04:38:27.197Z,22.50
2023-01-07T04:43:29.213Z,27.60
2023-01-07T04:48:31.792Z,20.00
2023-01-07T04:53:33.812Z,21.30
2023-01-07T04:58:35.816Z,20.95
2023-01-07T05:03:37.981Z,22.15
2023-01-07T05:08:40.016Z,21.13
2023-01-07T05:13:41.939Z,25.27
2023-01-07T05:18:44.691Z,20.38
2023-01-07T05:23:46.727Z,20.92
2023-01-07T05:28:48.745Z,25.25
2023-01-07T05:33:50.751Z,17.05
2023-01-07T05:38:52.753Z,23.73
2023-01-07T05:43:54.702Z,20.88
2023-01-07T05:48:56.678Z,27.55
2023-01-07T05:53:58.665Z,44.95
2023-01-07T05:59:00.679Z,19.05
2023-01-07T06:04:02.717Z,13.07
2023-01-07T06:09:05.048Z,17.88
2023-01-07T06:14:07.044Z,13.77
2023-01-07T06:19:09.007Z,9.10
2023-01-07T06:24:11.629Z,22.15
2023-01-07T06:34:15.664Z,12.15
2023-01-07T06:39:17.771Z,32.83
2023-01-07T06:44:19.962Z,31.42
2023-01-07T06:49:22.059Z,38.63
2023-01-07T06:54:24.073Z,45.70
2023-01-07T06:59:26.070Z,28.83
2023-01-07T07:04:28.043Z,58.05
2023-01-07T07:09:30.034Z,26.52
2023-01-07T07:14:32.243Z,46.13
2023-01-07T07:19:34.231Z,29.13
2023-01-07T07:24:36.206Z,32.00
2023-01-07T07:29:38.190Z,42.20
2023-01-07T07:34:40.250Z,16.77
2023-01-07T07:39:42.228Z,20.05
2023-01-07T07:44:44.243Z,13.80
2023-01-07T07:49:46.351Z,12.38
2023-01-07T07:54:48.459Z,28.58
2023-01-07T07:59:50.741Z,7.32
2023-01-07T08:04:52.783Z,9.85
2023-01-07T08:09:54.880Z,12.35
2023-01-07T08:14:57.141Z,13.38
2023-01-07T08:19:59.264Z,12.73
2023-01-07T08:25:02.291Z,8.18
2023-01-07T08:30:04.804Z,9.15
2023-01-07T08:35:10.583Z,8.27
2023-01-07T08:40:16.168Z,11.35
2023-01-07T08:45:19.527Z,8.52
2023-01-07T08:50:21.571Z,19.38
2023-01-07T08:55:24.929Z,22.70
2023-01-07T09:00:28.399Z,12.50
2023-01-07T09:05:33.374Z,48.65
2023-01-07T09:10:36.723Z,20.48
2023-01-07T09:15:40.912Z,23.55
2023-01-07T09:20:43.158Z,17.98
2023-01-07T09:25:46.206Z,19.67
2023-01-07T09:30:48.708Z,19.30
2023-01-07T09:35:50.936Z,17.00
2023-01-07T09:40:54.940Z,38.75
2023-01-07T09:46:01.213Z,17.33
2023-01-07T09:51:24.305Z,19.83
2023-01-07T09:56:37.544Z,12.65
2023-01-07T10:01:50.939Z,14.82
2023-01-07T10:07:17.831Z,12.05
2023-01-07T10:12:32.228Z,11.23
2023-01-07T10:17:46.223Z,10.10
2023-01-07T10:22:57.691Z,7.93
2023-01-07T10:28:06.079Z,12.93
2023-01-07T10:33:29.276Z,9.50
2023-01-07T10:38:35.572Z,15.13
2023-01-07T10:44:33.956Z,14.93
2023-01-07T10:49:57.765Z,8.48
2023-01-07T10:55:06.232Z,6.72
2023-01-07T11:00:14.843Z,15.27
2023-01-07T11:05:21.357Z,10.98
2023-01-07T11:10:30.743Z,11.25
2023-01-07T11:15:37.670Z,18.52
2023-01-07T11:20:54.705Z,8.35
2023-01-07T11:26:06.524Z,8.35
2023-01-07T11:31:09.217Z,17.20
2023-01-07T11:36:12.432Z,22.88
2023-01-07T11:41:27.166Z,9.40
2023-01-07T11:46:32.734Z,21.25
2023-01-07T11:51:41.660Z,18.88
2023-01-07T11:56:43.841Z,15.88
2023-01-07T12:01:55.214Z,16.30
2023-01-07T12:07:01.687Z,17.35
2023-01-07T12:12:39.669Z,18.60
2023-01-07T12:17:50.788Z,21.33
2023-01-07T12:23:23.296Z,17.58
2023-01-07T12:28:51.490Z,10.68
2023-01-07T12:34:28.984Z,23.33
2023-01-07T12:39:45.622Z,18.55
2023-01-07T12:44:52.240Z,16.38
2023-01-07T12:50:22.083Z,31.40
2023-01-07T12:55:35.071Z,25.25
2023-01-07T13:00:47.118Z,25.40
2023-01-07T13:05:54.813Z,34.63
2023-01-07T13:11:04.099Z,27.73
2023-01-07T13:16:06.878Z,23.65
2023-01-07T13:21:11.102Z,29.90
2023-01-07T13:26:51.057Z,21.17
2023-01-07T13:32:13.316Z,22.25
2023-01-07T13:37:29.178Z,22.42
2023-01-07T13:43:02.682Z,23.63
2023-01-07T13:48:17.836Z,27.30
2023-01-07T13:53:19.870Z,25.45
2023-01-07T13:58:32.263Z,28.92
2023-01-07T14:03:39.524Z,33.50
2023-01-07T14:08:42.844Z,25.17
2023-01-07T14:14:14.155Z,31.00
2023-01-07T14:19:58.926Z,32.45
2023-01-07T14:25:09.578Z,28.45
2023-01-07T14:30:29.441Z,26.85
2023-01-07T14:35:40.833Z,29.95
2023-01-07T14:40:42.949Z,27.15
2023-01-07T14:45:45.114Z,28.45
2023-01-07T14:51:03.983Z,30.27
2023-01-07T14:56:18.346Z,37.90
2023-01-07T15:01:29.656Z,48.90
2023-01-07T15:06:36.566Z,51.03
2023-01-07T15:12:00.595Z,46.03
2023-01-07T15:17:03.804Z,42.63
2023-01-07T15:22:09.236Z,38.65
2023-01-07T15:27:33.523Z,32.20
2023-01-07T15:33:01.729Z,48.15
2023-01-07T15:38:10.027Z,42.30
2023-01-07T15:43:26.870Z,51.83
2023-01-07T15:48:32.449Z,44.67
2023-01-07T15:53:37.059Z,47.60
2023-01-07T15:58:46.830Z,44.92
2023-01-07T16:03:51.859Z,33.75
2023-01-07T16:09:03.530Z,37.17
2023-01-07T16:14:20.626Z,39.10
2023-01-07T16:19:24.573Z,47.65
2023-01-07T16:24:34.405Z,48.35
2023-01-07T16:29:46.565Z,46.50
2023-01-07T16:35:16.217Z,46.53
2023-01-07T16:40:36.817Z,218.15
2023-01-07T16:45:41.481Z,124.35
2023-01-07T16:50:49.003Z,50.10
2023-01-07T16:55:58.962Z,52.22
2023-01-07T17:01:09.414Z,52.63
2023-01-07T17:06:20.947Z,51.63
2023-01-07T17:11:51.770Z,52.05
2023-01-07T17:17:10.887Z,53.03
2023-01-07T17:22:42.318Z,51.70
2023-01-07T17:27:57.974Z,52.13
2023-01-07T17:33:05.915Z,59.42
2023-01-07T17:38:16.992Z,46.25
2023-01-07T17:43:37.306Z,48.97
2023-01-07T17:53:48.963Z,45.40
2023-01-07T17:58:57.360Z,44.40
2023-01-07T18:04:03.834Z,42.33
2023-01-07T18:09:08.964Z,40.00
2023-01-07T18:14:16.196Z,39.72
2023-01-07T18:19:19.217Z,45.25
2023-01-07T18:24:23.116Z,45.85
2023-01-07T18:29:29.719Z,43.05
2023-01-07T18:34:34.176Z,54.00
2023-01-07T18:39:39.122Z,48.50
2023-01-07T18:44:41.517Z,47.30
2023-01-07T18:49:44.578Z,50.63
2023-01-07T18:55:14.544Z,58.53
2023-01-07T19:00:18.934Z,78.00
2023-01-07T19:05:21.367Z,175.00
2023-01-07T19:10:25.176Z,81.55
2023-01-07T19:15:36.893Z,76.38
2023-01-07T19:20:47.739Z,74.82
2023-01-07T19:26:02.019Z,93.63
2023-01-07T19:31:09.249Z,87.85
2023-01-07T19:36:17.671Z,85.35
2023-01-07T19:41:21.777Z,74.97
2023-01-07T19:46:25.736Z,54.55
2023-01-07T19:51:28.675Z,57.47
2023-01-07T19:57:01.629Z,78.57
2023-01-07T20:08:34.259Z,56.70
2023-01-07T20:13:40.710Z,67.35
2023-01-07T20:19:11.566Z,59.33
2023-01-07T20:24:30.292Z,65.82
2023-01-07T20:29:47.123Z,85.93
2023-01-07T20:34:50.568Z,69.13
2023-01-07T20:39:52.814Z,78.68
2023-01-07T20:44:55.409Z,82.20
2023-01-07T20:50:01.993Z,66.22
2023-01-07T20:55:07.060Z,67.80
2023-01-07T21:00:10.940Z,63.20
2023-01-07T21:05:14.467Z,72.40
2023-01-07T21:10:19.363Z,94.53
2023-01-07T21:15:22.827Z,93.95
2023-01-07T21:20:26.159Z,68.25
2023-01-07T21:25:29.404Z,102.35
2023-01-07T21:30:32.732Z,73.32
2023-01-07T21:35:38.415Z,78.38
2023-01-07T21:40:56.051Z,56.55
2023-01-07T21:46:09.819Z,62.90
2023-01-07T21:51:19.108Z,56.58
2023-01-07T21:56:22.274Z,66.38
2023-01-07T22:01:29.078Z,70.47
2023-01-07T22:06:36.785Z,63.35
2023-01-07T22:11:42.182Z,61.25
2023-01-07T22:16:46.879Z,52.58
2023-01-07T22:21:52.787Z,48.78
2023-01-07T22:26:55.942Z,48.22
2023-01-07T22:32:08.014Z,43.88
2023-01-07T22:37:15.015Z,52.28
2023-01-07T22:42:27.020Z,70.90
2023-01-07T22:47:36.682Z,92.72
2023-01-07T22:52:39.761Z,55.03
2023-01-07T22:57:42.329Z,66.97
2023-01-07T23:02:44.535Z,45.83
2023-01-07T23:07:46.571Z,48.55
2023-01-07T23:12:48.706Z,50.28
2023-01-07T23:22:52.876Z,38.22
2023-01-07T23:27:54.925Z,47.75
2023-01-07T23:32:57.259Z,50.58
2023-01-07T23:43:03.927Z,48.38
2023-01-07T23:48:06.096Z,53.53
2023-01-07T23:53:08.124Z,61.22
2023-01-07T23:58:10.552Z,45.25
